sensor_id;sensor_type;location;lat;lon;timestamp;temperature;humidity
24410;DHT22;12543;53.364;-1.504;2023-06-14T00:02:20;18.20;68.50
24410;DHT22;12543;53.364;-1.504;2023-06-14T00:04:47;18.20;68.60
24410;DHT22;12543;53.364;-1.504;2023-06-14T00:07:15;18.20;68.60
24410;DHT22;12543;53.364;-1.504;2023-06-14T00:09:43;18.10;68.50
24410;DHT22;12543;53.364;-1.504;2023-06-14T00:12:10;18.10;68.70
24410;DHT22;12543;53.364;-1.504;2023-06-14T00:14:38;18.10;68.70
24410;DHT22;12543;53.364;-1.504;2023-06-14T00:17:05;18.00;68.80
24410;DHT22;12543;53.364;-1.504;2023-06-14T00:19:34;18.00;68.80
24410;DHT22;12543;53.364;-1.504;2023-06-14T00:22:03;18.00;68.80
24410;DHT22;12543;53.364;-1.504;2023-06-14T00:24:30;17.90;68.90
24410;DHT22;12543;53.364;-1.504;2023-06-14T00:26:57;17.90;69.00
24410;DHT22;12543;53.364;-1.504;2023-06-14T00:29:25;17.90;68.90
24410;DHT22;12543;53.364;-1.504;2023-06-14T00:31:55;17.80;69.10
24410;DHT22;12543;53.364;-1.504;2023-06-14T00:34:25;17.80;69.00
24410;DHT22;12543;53.364;-1.504;2023-06-14T00:36:52;17.80;68.80
24410;DHT22;12543;53.364;-1.504;2023-06-14T00:39:20;17.70;69.40
24410;DHT22;12543;53.364;-1.504;2023-06-14T00:41:47;17.70;69.50
24410;DHT22;12543;53.364;-1.504;2023-06-14T00:44:14;17.70;69.60
24410;DHT22;12543;53.364;-1.504;2023-06-14T00:46:44;17.60;69.50
24410;DHT22;12543;53.364;-1.504;2023-06-14T00:49:12;17.60;69.80
24410;DHT22;12543;53.364;-1.504;2023-06-14T00:51:40;17.60;69.90
24410;DHT22;12543;53.364;-1.504;2023-06-14T00:54:07;17.50;69.80
24410;DHT22;12543;53.364;-1.504;2023-06-14T00:56:36;17.50;69.80
24410;DHT22;12543;53.364;-1.504;2023-06-14T00:59:03;17.50;69.90
24410;DHT22;12543;53.364;-1.504;2023-06-14T01:01:30;17.40;69.60
24410;DHT22;12543;53.364;-1.504;2023-06-14T01:04:00;17.40;70.00
24410;DHT22;12543;53.364;-1.504;2023-06-14T01:09:32;17.30;70.10
24410;DHT22;12543;53.364;-1.504;2023-06-14T01:12:10;17.30;70.40
24410;DHT22;12543;53.364;-1.504;2023-06-14T01:14:38;17.30;70.40
24410;DHT22;12543;53.364;-1.504;2023-06-14T01:17:06;17.20;70.40
24410;DHT22;12543;53.364;-1.504;2023-06-14T01:19:36;17.20;70.40
24410;DHT22;12543;53.364;-1.504;2023-06-14T01:22:05;17.10;70.60
24410;DHT22;12543;53.364;-1.504;2023-06-14T01:24:32;17.10;70.60
24410;DHT22;12543;53.364;-1.504;2023-06-14T01:27:01;17.10;70.80
24410;DHT22;12543;53.364;-1.504;2023-06-14T01:29:29;17.10;70.80
24410;DHT22;12543;53.364;-1.504;2023-06-14T01:32:00;17.10;70.90
24410;DHT22;12543;53.364;-1.504;2023-06-14T01:34:30;17.00;71.00
24410;DHT22;12543;53.364;-1.504;2023-06-14T01:36:57;16.90;71.00
24410;DHT22;12543;53.364;-1.504;2023-06-14T01:39:24;17.00;71.20
24410;DHT22;12543;53.364;-1.504;2023-06-14T01:41:52;16.90;71.20
24410;DHT22;12543;53.364;-1.504;2023-06-14T01:44:19;16.90;71.20
24410;DHT22;12543;53.364;-1.504;2023-06-14T01:46:47;16.90;71.40
24410;DHT22;12543;53.364;-1.504;2023-06-14T01:49:14;16.80;72.00
24410;DHT22;12543;53.364;-1.504;2023-06-14T01:51:42;16.80;71.70
24410;DHT22;12543;53.364;-1.504;2023-06-14T01:54:09;16.80;72.00
24410;DHT22;12543;53.364;-1.504;2023-06-14T01:56:37;16.70;72.00
24410;DHT22;12543;53.364;-1.504;2023-06-14T01:59:05;16.70;72.00
24410;DHT22;12543;53.364;-1.504;2023-06-14T02:01:32;16.70;72.00
24410;DHT22;12543;53.364;-1.504;2023-06-14T02:04:01;16.70;72.20
24410;DHT22;12543;53.364;-1.504;2023-06-14T02:06:28;16.70;72.20
24410;DHT22;12543;53.364;-1.504;2023-06-14T02:08:55;16.60;72.20
24410;DHT22;12543;53.364;-1.504;2023-06-14T02:11:23;16.60;72.10
24410;DHT22;12543;53.364;-1.504;2023-06-14T02:13:50;16.60;72.30
24410;DHT22;12543;53.364;-1.504;2023-06-14T02:16:17;16.60;72.40
24410;DHT22;12543;53.364;-1.504;2023-06-14T02:18:44;16.60;72.40
24410;DHT22;12543;53.364;-1.504;2023-06-14T02:21:12;16.50;72.50
24410;DHT22;12543;53.364;-1.504;2023-06-14T02:23:39;16.50;72.40
24410;DHT22;12543;53.364;-1.504;2023-06-14T02:26:07;16.50;72.50
24410;DHT22;12543;53.364;-1.504;2023-06-14T02:28:34;16.50;72.60
24410;DHT22;12543;53.364;-1.504;2023-06-14T02:31:02;16.40;72.60
24410;DHT22;12543;53.364;-1.504;2023-06-14T02:33:30;16.40;73.40
24410;DHT22;12543;53.364;-1.504;2023-06-14T02:35:57;16.40;72.70
24410;DHT22;12543;53.364;-1.504;2023-06-14T02:38:25;16.40;72.70
24410;DHT22;12543;53.364;-1.504;2023-06-14T02:40:53;16.40;72.70
24410;DHT22;12543;53.364;-1.504;2023-06-14T02:43:20;16.30;72.80
24410;DHT22;12543;53.364;-1.504;2023-06-14T02:45:47;16.30;72.80
24410;DHT22;12543;53.364;-1.504;2023-06-14T02:48:14;16.30;72.90
24410;DHT22;12543;53.364;-1.504;2023-06-14T02:50:43;16.30;72.90
24410;DHT22;12543;53.364;-1.504;2023-06-14T02:53:10;16.20;72.90
24410;DHT22;12543;53.364;-1.504;2023-06-14T02:55:37;16.20;73.00
24410;DHT22;12543;53.364;-1.504;2023-06-14T02:58:08;16.20;73.00
24410;DHT22;12543;53.364;-1.504;2023-06-14T03:00:35;16.10;73.10
24410;DHT22;12543;53.364;-1.504;2023-06-14T03:03:04;16.10;73.10
24410;DHT22;12543;53.364;-1.504;2023-06-14T03:05:36;16.10;73.20
24410;DHT22;12543;53.364;-1.504;2023-06-14T03:08:04;16.00;73.00
24410;DHT22;12543;53.364;-1.504;2023-06-14T03:10:32;16.00;73.10
24410;DHT22;12543;53.364;-1.504;2023-06-14T03:13:01;16.00;73.10
24410;DHT22;12543;53.364;-1.504;2023-06-14T03:15:30;16.00;73.10
24410;DHT22;12543;53.364;-1.504;2023-06-14T03:17:58;15.90;73.00
24410;DHT22;12543;53.364;-1.504;2023-06-14T03:20:26;15.90;73.10
24410;DHT22;12543;53.364;-1.504;2023-06-14T03:22:56;15.90;73.30
24410;DHT22;12543;53.364;-1.504;2023-06-14T03:25:23;15.80;73.70
24410;DHT22;12543;53.364;-1.504;2023-06-14T03:27:51;15.80;73.40
24410;DHT22;12543;53.364;-1.504;2023-06-14T03:30:19;15.80;73.40
24410;DHT22;12543;53.364;-1.504;2023-06-14T03:32:48;15.80;73.70
24410;DHT22;12543;53.364;-1.504;2023-06-14T03:35:16;15.80;74.00
24410;DHT22;12543;53.364;-1.504;2023-06-14T03:37:47;15.70;73.60
24410;DHT22;12543;53.364;-1.504;2023-06-14T03:40:15;15.70;73.80
24410;DHT22;12543;53.364;-1.504;2023-06-14T03:42:46;15.70;74.20
24410;DHT22;12543;53.364;-1.504;2023-06-14T03:45:14;15.70;74.00
24410;DHT22;12543;53.364;-1.504;2023-06-14T03:47:41;15.70;74.10
24410;DHT22;12543;53.364;-1.504;2023-06-14T03:50:09;15.70;74.20
24410;DHT22;12543;53.364;-1.504;2023-06-14T03:52:36;15.60;73.80
24410;DHT22;12543;53.364;-1.504;2023-06-14T03:55:04;15.60;74.40
24410;DHT22;12543;53.364;-1.504;2023-06-14T03:57:34;15.70;74.60
24410;DHT22;12543;53.364;-1.504;2023-06-14T04:00:04;15.60;74.30
24410;DHT22;12543;53.364;-1.504;2023-06-14T04:02:40;15.60;74.30
24410;DHT22;12543;53.364;-1.504;2023-06-14T04:05:09;15.60;74.30
24410;DHT22;12543;53.364;-1.504;2023-06-14T04:07:41;15.60;74.10
24410;DHT22;12543;53.364;-1.504;2023-06-14T04:10:11;15.60;74.10
24410;DHT22;12543;53.364;-1.504;2023-06-14T04:12:39;15.60;74.10
24410;DHT22;12543;53.364;-1.504;2023-06-14T04:15:09;15.50;74.00
24410;DHT22;12543;53.364;-1.504;2023-06-14T04:17:50;15.50;74.70
24410;DHT22;12543;53.364;-1.504;2023-06-14T04:20:20;15.50;75.60
24410;DHT22;12543;53.364;-1.504;2023-06-14T04:22:47;15.50;74.60
24410;DHT22;12543;53.364;-1.504;2023-06-14T04:25:15;15.50;74.60
24410;DHT22;12543;53.364;-1.504;2023-06-14T04:27:50;15.50;74.70
24410;DHT22;12543;53.364;-1.504;2023-06-14T04:30:17;15.50;74.80
24410;DHT22;12543;53.364;-1.504;2023-06-14T04:32:49;15.50;74.90
24410;DHT22;12543;53.364;-1.504;2023-06-14T04:35:16;15.50;75.00
24410;DHT22;12543;53.364;-1.504;2023-06-14T04:37:46;15.50;75.60
24410;DHT22;12543;53.364;-1.504;2023-06-14T04:40:13;15.50;75.30
24410;DHT22;12543;53.364;-1.504;2023-06-14T04:42:40;15.50;75.10
24410;DHT22;12543;53.364;-1.504;2023-06-14T04:45:13;15.50;75.40
24410;DHT22;12543;53.364;-1.504;2023-06-14T04:47:44;15.50;74.90
24410;DHT22;12543;53.364;-1.504;2023-06-14T04:50:11;15.50;75.10
24410;DHT22;12543;53.364;-1.504;2023-06-14T04:52:39;15.50;75.40
24410;DHT22;12543;53.364;-1.504;2023-06-14T04:55:10;15.50;75.20
24410;DHT22;12543;53.364;-1.504;2023-06-14T04:57:37;15.50;75.20
24410;DHT22;12543;53.364;-1.504;2023-06-14T05:00:07;15.50;75.50
24410;DHT22;12543;53.364;-1.504;2023-06-14T05:02:34;15.50;76.10
24410;DHT22;12543;53.364;-1.504;2023-06-14T05:05:04;15.50;75.70
24410;DHT22;12543;53.364;-1.504;2023-06-14T05:07:34;15.50;76.00
24410;DHT22;12543;53.364;-1.504;2023-06-14T05:10:02;15.50;75.80
24410;DHT22;12543;53.364;-1.504;2023-06-14T05:12:29;15.50;75.80
24410;DHT22;12543;53.364;-1.504;2023-06-14T05:14:57;15.60;76.10
24410;DHT22;12543;53.364;-1.504;2023-06-14T05:17:26;15.60;76.30
24410;DHT22;12543;53.364;-1.504;2023-06-14T05:19:54;15.60;76.00
24410;DHT22;12543;53.364;-1.504;2023-06-14T05:22:22;15.60;76.50
24410;DHT22;12543;53.364;-1.504;2023-06-14T05:24:51;15.60;76.70
24410;DHT22;12543;53.364;-1.504;2023-06-14T05:27:20;15.60;76.80
24410;DHT22;12543;53.364;-1.504;2023-06-14T05:29:47;15.70;77.20
24410;DHT22;12543;53.364;-1.504;2023-06-14T05:32:14;15.70;76.70
24410;DHT22;12543;53.364;-1.504;2023-06-14T05:34:42;15.70;77.00
24410;DHT22;12543;53.364;-1.504;2023-06-14T05:37:09;15.70;76.80
24410;DHT22;12543;53.364;-1.504;2023-06-14T05:39:36;15.70;76.90
24410;DHT22;12543;53.364;-1.504;2023-06-14T05:42:04;15.80;77.60
24410;DHT22;12543;53.364;-1.504;2023-06-14T05:44:31;15.80;77.40
24410;DHT22;12543;53.364;-1.504;2023-06-14T05:46:58;15.80;77.60
24410;DHT22;12543;53.364;-1.504;2023-06-14T05:49:25;15.80;78.00
24410;DHT22;12543;53.364;-1.504;2023-06-14T05:51:55;15.80;77.90
24410;DHT22;12543;53.364;-1.504;2023-06-14T05:54:22;15.90;78.00
24410;DHT22;12543;53.364;-1.504;2023-06-14T05:56:49;15.90;78.00
24410;DHT22;12543;53.364;-1.504;2023-06-14T05:59:17;15.90;78.10
24410;DHT22;12543;53.364;-1.504;2023-06-14T06:01:44;15.90;78.50
24410;DHT22;12543;53.364;-1.504;2023-06-14T06:04:11;16.00;78.20
24410;DHT22;12543;53.364;-1.504;2023-06-14T06:06:38;16.00;78.20
24410;DHT22;12543;53.364;-1.504;2023-06-14T06:09:12;16.00;78.60
24410;DHT22;12543;53.364;-1.504;2023-06-14T06:11:46;16.10;78.70
24410;DHT22;12543;53.364;-1.504;2023-06-14T06:14:19;16.10;78.50
24410;DHT22;12543;53.364;-1.504;2023-06-14T06:16:46;16.10;78.90
24410;DHT22;12543;53.364;-1.504;2023-06-14T06:19:13;16.20;80.00
24410;DHT22;12543;53.364;-1.504;2023-06-14T06:21:40;16.20;79.50
24410;DHT22;12543;53.364;-1.504;2023-06-14T06:24:07;16.20;79.10
24410;DHT22;12543;53.364;-1.504;2023-06-14T06:26:35;16.30;79.20
24410;DHT22;12543;53.364;-1.504;2023-06-14T06:29:03;16.30;78.90
24410;DHT22;12543;53.364;-1.504;2023-06-14T06:31:30;16.30;78.90
24410;DHT22;12543;53.364;-1.504;2023-06-14T06:34:00;16.30;79.20
24410;DHT22;12543;53.364;-1.504;2023-06-14T06:36:28;16.40;79.30
24410;DHT22;12543;53.364;-1.504;2023-06-14T06:38:55;16.50;80.00
24410;DHT22;12543;53.364;-1.504;2023-06-14T06:41:22;16.50;79.70
24410;DHT22;12543;53.364;-1.504;2023-06-14T06:43:49;16.50;80.30
24410;DHT22;12543;53.364;-1.504;2023-06-14T06:46:17;16.60;80.30
24410;DHT22;12543;53.364;-1.504;2023-06-14T06:48:47;16.70;79.80
24410;DHT22;12543;53.364;-1.504;2023-06-14T06:51:14;16.70;79.80
24410;DHT22;12543;53.364;-1.504;2023-06-14T06:53:41;16.80;80.30
24410;DHT22;12543;53.364;-1.504;2023-06-14T06:56:09;16.80;80.60
24410;DHT22;12543;53.364;-1.504;2023-06-14T06:58:36;16.90;80.70
24410;DHT22;12543;53.364;-1.504;2023-06-14T07:01:04;17.00;80.60
24410;DHT22;12543;53.364;-1.504;2023-06-14T07:03:31;17.00;80.00
24410;DHT22;12543;53.364;-1.504;2023-06-14T07:05:58;17.10;80.20
24410;DHT22;12543;53.364;-1.504;2023-06-14T07:08:26;17.10;81.60
24410;DHT22;12543;53.364;-1.504;2023-06-14T07:10:54;17.10;80.50
24410;DHT22;12543;53.364;-1.504;2023-06-14T07:13:21;17.20;80.60
24410;DHT22;12543;53.364;-1.504;2023-06-14T07:15:54;17.20;81.10
24410;DHT22;12543;53.364;-1.504;2023-06-14T07:18:22;17.30;80.80
24410;DHT22;12543;53.364;-1.504;2023-06-14T07:20:52;17.40;81.60
24410;DHT22;12543;53.364;-1.504;2023-06-14T07:23:22;17.40;81.50
24410;DHT22;12543;53.364;-1.504;2023-06-14T07:25:50;17.50;81.20
24410;DHT22;12543;53.364;-1.504;2023-06-14T07:28:17;17.60;81.20
24410;DHT22;12543;53.364;-1.504;2023-06-14T07:30:52;17.60;81.10
24410;DHT22;12543;53.364;-1.504;2023-06-14T07:33:23;17.70;81.30
24410;DHT22;12543;53.364;-1.504;2023-06-14T07:35:50;17.70;81.70
24410;DHT22;12543;53.364;-1.504;2023-06-14T07:38:19;17.80;81.50
24410;DHT22;12543;53.364;-1.504;2023-06-14T07:40:47;17.90;81.40
24410;DHT22;12543;53.364;-1.504;2023-06-14T07:43:14;17.90;81.30
24410;DHT22;12543;53.364;-1.504;2023-06-14T07:45:41;18.00;81.30
24410;DHT22;12543;53.364;-1.504;2023-06-14T07:48:23;18.10;81.90
24410;DHT22;12543;53.364;-1.504;2023-06-14T07:50:53;18.10;81.30
24410;DHT22;12543;53.364;-1.504;2023-06-14T07:53:21;18.20;81.60
24410;DHT22;12543;53.364;-1.504;2023-06-14T07:55:48;18.20;82.10
24410;DHT22;12543;53.364;-1.504;2023-06-14T07:58:19;18.30;81.90
24410;DHT22;12543;53.364;-1.504;2023-06-14T08:00:46;18.40;81.90
24410;DHT22;12543;53.364;-1.504;2023-06-14T08:03:14;18.40;82.00
24410;DHT22;12543;53.364;-1.504;2023-06-14T08:05:41;18.50;81.90
24410;DHT22;12543;53.364;-1.504;2023-06-14T08:08:09;18.60;81.40
24410;DHT22;12543;53.364;-1.504;2023-06-14T08:10:36;18.60;81.10
24410;DHT22;12543;53.364;-1.504;2023-06-14T08:13:03;18.60;81.70
24410;DHT22;12543;53.364;-1.504;2023-06-14T08:15:30;18.70;81.40
24410;DHT22;12543;53.364;-1.504;2023-06-14T08:17:57;18.80;81.80
24410;DHT22;12543;53.364;-1.504;2023-06-14T08:20:27;18.90;81.80
24410;DHT22;12543;53.364;-1.504;2023-06-14T08:22:54;18.90;82.10
24410;DHT22;12543;53.364;-1.504;2023-06-14T08:25:23;19.00;82.10
24410;DHT22;12543;53.364;-1.504;2023-06-14T08:27:51;19.10;82.00
24410;DHT22;12543;53.364;-1.504;2023-06-14T08:30:18;19.10;82.10
24410;DHT22;12543;53.364;-1.504;2023-06-14T08:32:45;19.20;81.80
24410;DHT22;12543;53.364;-1.504;2023-06-14T08:35:17;19.30;81.90
24410;DHT22;12543;53.364;-1.504;2023-06-14T08:37:46;19.40;81.80
24410;DHT22;12543;53.364;-1.504;2023-06-14T08:40:20;19.40;81.70
24410;DHT22;12543;53.364;-1.504;2023-06-14T08:42:52;19.50;81.80
24410;DHT22;12543;53.364;-1.504;2023-06-14T08:45:20;19.60;81.90
24410;DHT22;12543;53.364;-1.504;2023-06-14T08:47:52;19.70;81.90
24410;DHT22;12543;53.364;-1.504;2023-06-14T08:50:25;19.80;82.00
24410;DHT22;12543;53.364;-1.504;2023-06-14T08:52:56;19.90;81.80
24410;DHT22;12543;53.364;-1.504;2023-06-14T08:55:24;20.00;81.70
24410;DHT22;12543;53.364;-1.504;2023-06-14T08:57:56;20.00;81.80
24410;DHT22;12543;53.364;-1.504;2023-06-14T09:00:27;20.10;81.50
24410;DHT22;12543;53.364;-1.504;2023-06-14T09:02:54;20.20;81.80
24410;DHT22;12543;53.364;-1.504;2023-06-14T09:05:25;20.30;81.60
24410;DHT22;12543;53.364;-1.504;2023-06-14T09:07:53;20.40;81.20
24410;DHT22;12543;53.364;-1.504;2023-06-14T09:10:22;20.50;81.40
24410;DHT22;12543;53.364;-1.504;2023-06-14T09:12:50;20.60;81.50
24410;DHT22;12543;53.364;-1.504;2023-06-14T09:15:17;20.60;81.50
24410;DHT22;12543;53.364;-1.504;2023-06-14T09:17:44;20.80;81.60
24410;DHT22;12543;53.364;-1.504;2023-06-14T09:20:12;20.90;81.60
24410;DHT22;12543;53.364;-1.504;2023-06-14T09:22:46;21.00;81.40
24410;DHT22;12543;53.364;-1.504;2023-06-14T09:25:13;21.10;81.50
24410;DHT22;12543;53.364;-1.504;2023-06-14T09:28:02;21.20;81.50
24410;DHT22;12543;53.364;-1.504;2023-06-14T09:30:29;21.40;81.60
24410;DHT22;12543;53.364;-1.504;2023-06-14T09:32:56;21.50;81.60
24410;DHT22;12543;53.364;-1.504;2023-06-14T09:35:27;21.60;81.30
24410;DHT22;12543;53.364;-1.504;2023-06-14T09:37:56;21.80;81.30
24410;DHT22;12543;53.364;-1.504;2023-06-14T09:40:23;21.90;82.40
24410;DHT22;12543;53.364;-1.504;2023-06-14T09:42:50;22.20;83.20
24410;DHT22;12543;53.364;-1.504;2023-06-14T09:45:18;22.50;85.80
24410;DHT22;12543;53.364;-1.504;2023-06-14T09:47:48;23.10;86.00
24410;DHT22;12543;53.364;-1.504;2023-06-14T09:50:32;23.80;87.00
24410;DHT22;12543;53.364;-1.504;2023-06-14T09:53:02;24.70;87.60
24410;DHT22;12543;53.364;-1.504;2023-06-14T09:55:30;25.60;85.70
24410;DHT22;12543;53.364;-1.504;2023-06-14T09:57:57;26.50;84.10
24410;DHT22;12543;53.364;-1.504;2023-06-14T10:00:26;27.40;83.30
24410;DHT22;12543;53.364;-1.504;2023-06-14T10:02:54;28.20;82.40
24410;DHT22;12543;53.364;-1.504;2023-06-14T10:05:22;28.90;79.00
24410;DHT22;12543;53.364;-1.504;2023-06-14T10:10:20;30.10;78.00
24410;DHT22;12543;53.364;-1.504;2023-06-14T10:12:47;30.70;77.00
24410;DHT22;12543;53.364;-1.504;2023-06-14T10:15:16;31.30;75.60
24410;DHT22;12543;53.364;-1.504;2023-06-14T10:20:32;32.20;72.70
24410;DHT22;12543;53.364;-1.504;2023-06-14T10:23:02;32.60;72.00
24410;DHT22;12543;53.364;-1.504;2023-06-14T10:25:31;33.00;69.30
24410;DHT22;12543;53.364;-1.504;2023-06-14T10:28:20;33.50;71.00
24410;DHT22;12543;53.364;-1.504;2023-06-14T10:31:26;33.80;69.00
24410;DHT22;12543;53.364;-1.504;2023-06-14T10:33:49;34.10;65.40
24410;DHT22;12543;53.364;-1.504;2023-06-14T10:36:24;34.40;65.00
24410;DHT22;12543;53.364;-1.504;2023-06-14T10:38:58;34.60;63.80
24410;DHT22;12543;53.364;-1.504;2023-06-14T10:41:29;34.80;59.70
24410;DHT22;12543;53.364;-1.504;2023-06-14T10:49:11;35.50;61.80
24410;DHT22;12543;53.364;-1.504;2023-06-14T10:51:39;35.80;61.80
24410;DHT22;12543;53.364;-1.504;2023-06-14T10:54:13;36.00;60.10
24410;DHT22;12543;53.364;-1.504;2023-06-14T10:56:46;36.20;59.40
24410;DHT22;12543;53.364;-1.504;2023-06-14T10:59:14;36.30;56.70
24410;DHT22;12543;53.364;-1.504;2023-06-14T11:04:48;36.60;57.20
24410;DHT22;12543;53.364;-1.504;2023-06-14T11:12:52;36.70;56.60
24410;DHT22;12543;53.364;-1.504;2023-06-14T11:15:27;36.80;56.40
24410;DHT22;12543;53.364;-1.504;2023-06-14T11:17:54;36.90;56.70
24410;DHT22;12543;53.364;-1.504;2023-06-14T11:20:26;37.10;57.70
24410;DHT22;12543;53.364;-1.504;2023-06-14T11:22:54;37.30;56.70
24410;DHT22;12543;53.364;-1.504;2023-06-14T11:25:22;37.40;57.20
24410;DHT22;12543;53.364;-1.504;2023-06-14T11:27:50;37.60;56.90
24410;DHT22;12543;53.364;-1.504;2023-06-14T11:30:17;37.70;56.60
24410;DHT22;12543;53.364;-1.504;2023-06-14T11:32:51;38.00;56.10
24410;DHT22;12543;53.364;-1.504;2023-06-14T11:35:22;38.10;56.40
24410;DHT22;12543;53.364;-1.504;2023-06-14T11:37:53;38.30;55.40
24410;DHT22;12543;53.364;-1.504;2023-06-14T11:40:25;38.40;55.80
24410;DHT22;12543;53.364;-1.504;2023-06-14T11:42:59;38.50;52.30
24410;DHT22;12543;53.364;-1.504;2023-06-14T11:45:27;38.50;53.60
24410;DHT22;12543;53.364;-1.504;2023-06-14T11:47:55;38.60;54.50
24410;DHT22;12543;53.364;-1.504;2023-06-14T11:50:23;38.60;53.60
24410;DHT22;12543;53.364;-1.504;2023-06-14T11:52:54;38.80;53.80
24410;DHT22;12543;53.364;-1.504;2023-06-14T11:55:22;38.90;53.50
24410;DHT22;12543;53.364;-1.504;2023-06-14T11:57:50;38.90;54.00
24410;DHT22;12543;53.364;-1.504;2023-06-14T12:00:17;39.00;53.80
24410;DHT22;12543;53.364;-1.504;2023-06-14T12:02:52;39.10;53.50
24410;DHT22;12543;53.364;-1.504;2023-06-14T12:05:20;39.10;53.00
24410;DHT22;12543;53.364;-1.504;2023-06-14T12:07:48;39.20;53.60
24410;DHT22;12543;53.364;-1.504;2023-06-14T12:10:15;39.30;52.70
24410;DHT22;12543;53.364;-1.504;2023-06-14T12:12:42;39.40;52.80
24410;DHT22;12543;53.364;-1.504;2023-06-14T12:15:10;39.40;51.80
24410;DHT22;12543;53.364;-1.504;2023-06-14T12:17:41;39.40;51.60
24410;DHT22;12543;53.364;-1.504;2023-06-14T12:20:09;39.40;51.90
24410;DHT22;12543;53.364;-1.504;2023-06-14T12:22:47;39.50;52.70
24410;DHT22;12543;53.364;-1.504;2023-06-14T12:25:25;39.60;51.20
24410;DHT22;12543;53.364;-1.504;2023-06-14T12:27:54;39.60;51.30
24410;DHT22;12543;53.364;-1.504;2023-06-14T12:30:21;39.60;51.30
24410;DHT22;12543;53.364;-1.504;2023-06-14T12:32:48;39.70;50.40
24410;DHT22;12543;53.364;-1.504;2023-06-14T12:35:18;39.70;49.90
24410;DHT22;12543;53.364;-1.504;2023-06-14T12:37:45;39.70;50.90
24410;DHT22;12543;53.364;-1.504;2023-06-14T12:40:13;39.80;51.80
24410;DHT22;12543;53.364;-1.504;2023-06-14T12:42:40;39.80;50.50
24410;DHT22;12543;53.364;-1.504;2023-06-14T12:45:07;39.80;51.10
24410;DHT22;12543;53.364;-1.504;2023-06-14T12:47:35;39.80;50.30
24410;DHT22;12543;53.364;-1.504;2023-06-14T12:50:03;39.80;50.70
24410;DHT22;12543;53.364;-1.504;2023-06-14T12:52:31;39.90;47.80
24410;DHT22;12543;53.364;-1.504;2023-06-14T12:54:58;39.90;50.10
24410;DHT22;12543;53.364;-1.504;2023-06-14T12:57:25;39.80;49.10
24410;DHT22;12543;53.364;-1.504;2023-06-14T12:59:52;39.80;50.30
24410;DHT22;12543;53.364;-1.504;2023-06-14T13:02:19;39.70;50.70
24410;DHT22;12543;53.364;-1.504;2023-06-14T13:04:52;39.60;50.20
24410;DHT22;12543;53.364;-1.504;2023-06-14T13:07:19;39.60;50.30
24410;DHT22;12543;53.364;-1.504;2023-06-14T13:09:46;39.40;48.40
24410;DHT22;12543;53.364;-1.504;2023-06-14T13:12:13;39.40;48.40
24410;DHT22;12543;53.364;-1.504;2023-06-14T13:14:40;39.30;49.50
24410;DHT22;12543;53.364;-1.504;2023-06-14T13:17:10;39.10;48.40
24410;DHT22;12543;53.364;-1.504;2023-06-14T13:19:37;39.10;49.10
24410;DHT22;12543;53.364;-1.504;2023-06-14T13:22:05;39.00;49.30
24410;DHT22;12543;53.364;-1.504;2023-06-14T13:24:32;39.00;49.70
24410;DHT22;12543;53.364;-1.504;2023-06-14T13:26:59;38.90;48.80
24410;DHT22;12543;53.364;-1.504;2023-06-14T13:29:26;38.80;46.00
24410;DHT22;12543;53.364;-1.504;2023-06-14T13:31:54;38.60;46.60
24410;DHT22;12543;53.364;-1.504;2023-06-14T13:34:22;38.50;48.10
24410;DHT22;12543;53.364;-1.504;2023-06-14T13:36:49;38.40;45.80
24410;DHT22;12543;53.364;-1.504;2023-06-14T13:39:16;38.20;46.30
24410;DHT22;12543;53.364;-1.504;2023-06-14T13:41:43;38.00;42.50
24410;DHT22;12543;53.364;-1.504;2023-06-14T13:44:10;37.80;44.90
24410;DHT22;12543;53.364;-1.504;2023-06-14T13:46:42;37.50;45.60
24410;DHT22;12543;53.364;-1.504;2023-06-14T13:49:10;37.20;46.00
24410;DHT22;12543;53.364;-1.504;2023-06-14T13:51:37;36.90;45.60
24410;DHT22;12543;53.364;-1.504;2023-06-14T13:54:04;36.50;44.60
24410;DHT22;12543;53.364;-1.504;2023-06-14T13:56:31;36.10;46.30
24410;DHT22;12543;53.364;-1.504;2023-06-14T13:58:59;35.70;45.20
24410;DHT22;12543;53.364;-1.504;2023-06-14T14:01:27;35.30;46.60
24410;DHT22;12543;53.364;-1.504;2023-06-14T14:03:55;35.00;46.80
24410;DHT22;12543;53.364;-1.504;2023-06-14T14:06:23;34.80;47.90
24410;DHT22;12543;53.364;-1.504;2023-06-14T14:08:50;34.40;47.30
24410;DHT22;12543;53.364;-1.504;2023-06-14T14:11:17;34.20;48.10
24410;DHT22;12543;53.364;-1.504;2023-06-14T14:13:44;34.00;47.10
24410;DHT22;12543;53.364;-1.504;2023-06-14T14:16:12;33.80;46.90
24410;DHT22;12543;53.364;-1.504;2023-06-14T14:18:39;33.50;49.30
24410;DHT22;12543;53.364;-1.504;2023-06-14T14:21:07;33.30;49.00
24410;DHT22;12543;53.364;-1.504;2023-06-14T14:23:34;33.10;46.80
24410;DHT22;12543;53.364;-1.504;2023-06-14T14:26:01;32.80;46.50
24410;DHT22;12543;53.364;-1.504;2023-06-14T14:28:31;32.60;49.70
24410;DHT22;12543;53.364;-1.504;2023-06-14T14:30:59;32.40;49.40
24410;DHT22;12543;53.364;-1.504;2023-06-14T14:33:26;32.20;49.30
24410;DHT22;12543;53.364;-1.504;2023-06-14T14:35:53;32.00;49.90
24410;DHT22;12543;53.364;-1.504;2023-06-14T14:38:20;31.90;49.70
24410;DHT22;12543;53.364;-1.504;2023-06-14T14:40:48;31.60;50.50
24410;DHT22;12543;53.364;-1.504;2023-06-14T14:43:18;31.40;50.70
24410;DHT22;12543;53.364;-1.504;2023-06-14T14:45:45;31.30;49.20
24410;DHT22;12543;53.364;-1.504;2023-06-14T14:48:12;31.10;50.20
24410;DHT22;12543;53.364;-1.504;2023-06-14T14:50:39;30.80;48.60
24410;DHT22;12543;53.364;-1.504;2023-06-14T14:53:07;30.60;48.80
24410;DHT22;12543;53.364;-1.504;2023-06-14T14:55:34;30.40;48.60
24410;DHT22;12543;53.364;-1.504;2023-06-14T14:58:02;30.20;49.40
24410;DHT22;12543;53.364;-1.504;2023-06-14T15:00:30;30.00;51.00
24410;DHT22;12543;53.364;-1.504;2023-06-14T15:02:57;29.80;50.40
24410;DHT22;12543;53.364;-1.504;2023-06-14T15:05:24;29.60;49.80
24410;DHT22;12543;53.364;-1.504;2023-06-14T15:07:51;29.40;49.60
24410;DHT22;12543;53.364;-1.504;2023-06-14T15:10:18;29.30;52.00
24410;DHT22;12543;53.364;-1.504;2023-06-14T15:12:45;29.20;52.70
24410;DHT22;12543;53.364;-1.504;2023-06-14T15:15:12;29.00;50.40
24410;DHT22;12543;53.364;-1.504;2023-06-14T15:17:39;28.90;51.50
24410;DHT22;12543;53.364;-1.504;2023-06-14T15:20:06;28.70;52.00
24410;DHT22;12543;53.364;-1.504;2023-06-14T15:22:33;28.60;51.50
24410;DHT22;12543;53.364;-1.504;2023-06-14T15:25:00;28.40;51.60
24410;DHT22;12543;53.364;-1.504;2023-06-14T15:27:28;28.30;52.20
24410;DHT22;12543;53.364;-1.504;2023-06-14T15:29:55;28.30;52.20
24410;DHT22;12543;53.364;-1.504;2023-06-14T15:32:22;28.10;51.40
24410;DHT22;12543;53.364;-1.504;2023-06-14T15:34:49;28.00;52.00
24410;DHT22;12543;53.364;-1.504;2023-06-14T15:37:16;27.90;52.70
24410;DHT22;12543;53.364;-1.504;2023-06-14T15:39:43;27.70;52.40
24410;DHT22;12543;53.364;-1.504;2023-06-14T15:42:10;27.70;52.50
24410;DHT22;12543;53.364;-1.504;2023-06-14T15:44:38;27.60;52.40
24410;DHT22;12543;53.364;-1.504;2023-06-14T15:47:05;27.50;53.00